sensor_id;sensor_type;location;lat;lon;timestamp;temperature;humidity
48212;DHT22;34000;48.772;9.162;2024-01-11T08:49:01;4.70;41.00
48212;DHT22;34000;48.772;9.162;2024-01-11T08:51:29;3.60;47.10
48212;DHT22;34000;48.772;9.162;2024-01-11T08:53:54;3.60;47.60
48212;DHT22;34000;48.772;9.162;2024-01-11T09:32:57;3.70;46.90
48212;DHT22;34000;48.772;9.162;2024-01-11T09:35:23;4.60;47.60
48212;DHT22;34000;48.772;9.162;2024-01-11T09:37:49;5.70;47.30
48212;DHT22;34000;48.772;9.162;2024-01-11T09:40:15;7.00;46.20
48212;DHT22;34000;48.772;9.162;2024-01-11T09:42:42;8.20;45.00
48212;DHT22;34000;48.772;9.162;2024-01-11T09:45:12;9.30;43.80
48212;DHT22;34000;48.772;9.162;2024-01-11T09:47:38;10.20;42.80
48212;DHT22;34000;48.772;9.162;2024-01-11T09:50:05;11.10;42.00
48212;DHT22;34000;48.772;9.162;2024-01-11T09:52:31;11.80;41.10
48212;DHT22;34000;48.772;9.162;2024-01-11T09:54:58;12.30;40.60
48212;DHT22;34000;48.772;9.162;2024-01-11T09:57:32;12.80;40.10
48212;DHT22;34000;48.772;9.162;2024-01-11T10:00:04;13.20;39.70
48212;DHT22;34000;48.772;9.162;2024-01-11T10:02:33;13.50;39.30
48212;DHT22;34000;48.772;9.162;2024-01-11T10:04:59;13.80;39.00
48212;DHT22;34000;48.772;9.162;2024-01-11T10:07:25;14.10;38.50
48212;DHT22;34000;48.772;9.162;2024-01-11T10:09:51;14.20;38.30
48212;DHT22;34000;48.772;9.162;2024-01-11T10:12:23;14.50;38.10
48212;DHT22;34000;48.772;9.162;2024-01-11T10:14:50;14.70;37.70
48212;DHT22;34000;48.772;9.162;2024-01-11T10:17:17;14.90;37.40
48212;DHT22;34000;48.772;9.162;2024-01-11T10:19:43;15.20;37.30
48212;DHT22;34000;48.772;9.162;2024-01-11T10:22:08;15.40;37.00
48212;DHT22;34000;48.772;9.162;2024-01-11T10:24:38;15.70;36.70
48212;DHT22;34000;48.772;9.162;2024-01-11T10:27:04;16.00;36.30
48212;DHT22;34000;48.772;9.162;2024-01-11T10:29:32;16.10;35.60
48212;DHT22;34000;48.772;9.162;2024-01-11T10:31:58;16.20;35.20
48212;DHT22;34000;48.772;9.162;2024-01-11T10:34:24;16.20;35.90
48212;DHT22;34000;48.772;9.162;2024-01-11T10:36:53;16.20;35.10
48212;DHT22;34000;48.772;9.162;2024-01-11T10:39:24;16.30;35.00
48212;DHT22;34000;48.772;9.162;2024-01-11T10:41:56;16.60;34.90
48212;DHT22;34000;48.772;9.162;2024-01-11T10:44:26;16.70;34.80
48212;DHT22;34000;48.772;9.162;2024-01-11T10:46:56;16.80;34.60
48212;DHT22;34000;48.772;9.162;2024-01-11T10:49:23;16.90;34.60
48212;DHT22;34000;48.772;9.162;2024-01-11T10:52:00;16.90;34.40
48212;DHT22;34000;48.772;9.162;2024-01-11T10:54:27;17.00;34.20
48212;DHT22;34000;48.772;9.162;2024-01-11T10:56:55;17.10;34.30
48212;DHT22;34000;48.772;9.162;2024-01-11T10:59:22;17.20;34.20
48212;DHT22;34000;48.772;9.162;2024-01-11T11:01:56;17.20;34.10
48212;DHT22;34000;48.772;9.162;2024-01-11T11:04:23;17.20;34.00
48212;DHT22;34000;48.772;9.162;2024-01-11T11:06:51;17.20;34.20
48212;DHT22;34000;48.772;9.162;2024-01-11T11:09:20;17.20;34.00
48212;DHT22;34000;48.772;9.162;2024-01-11T11:11:48;17.10;34.00
48212;DHT22;34000;48.772;9.162;2024-01-11T11:14:15;17.00;34.10
48212;DHT22;34000;48.772;9.162;2024-01-11T11:16:41;17.00;34.00
48212;DHT22;34000;48.772;9.162;2024-01-11T11:19:07;16.90;33.90
48212;DHT22;34000;48.772;9.162;2024-01-11T11:21:42;16.90;33.70
48212;DHT22;34000;48.772;9.162;2024-01-11T11:24:08;16.80;33.60
48212;DHT22;34000;48.772;9.162;2024-01-11T11:26:34;16.60;33.70
48212;DHT22;34000;48.772;9.162;2024-01-11T11:29:00;16.40;33.60
48212;DHT22;34000;48.772;9.162;2024-01-11T11:31:36;16.30;33.70
48212;DHT22;34000;48.772;9.162;2024-01-11T11:34:04;16.30;33.80
48212;DHT22;34000;48.772;9.162;2024-01-11T11:36:30;16.30;33.70
48212;DHT22;34000;48.772;9.162;2024-01-11T11:38:58;16.30;33.60
48212;DHT22;34000;48.772;9.162;2024-01-11T11:41:26;16.20;33.50
48212;DHT22;34000;48.772;9.162;2024-01-11T11:43:52;16.00;33.40
48212;DHT22;34000;48.772;9.162;2024-01-11T11:46:21;15.90;33.50
48212;DHT22;34000;48.772;9.162;2024-01-11T11:53:40;15.40;33.80
48212;DHT22;34000;48.772;9.162;2024-01-11T11:56:07;15.20;33.80
48212;DHT22;34000;48.772;9.162;2024-01-11T11:58:34;15.20;33.80
48212;DHT22;34000;48.772;9.162;2024-01-11T12:01:01;15.10;33.80
48212;DHT22;34000;48.772;9.162;2024-01-11T12:03:38;15.20;33.80
48212;DHT22;34000;48.772;9.162;2024-01-11T12:06:10;15.20;33.70
48212;DHT22;34000;48.772;9.162;2024-01-11T12:08:36;15.20;33.60
48212;DHT22;34000;48.772;9.162;2024-01-11T12:11:03;15.20;33.60
48212;DHT22;34000;48.772;9.162;2024-01-11T12:13:29;15.20;33.50
48212;DHT22;34000;48.772;9.162;2024-01-11T12:15:58;15.10;33.50
48212;DHT22;34000;48.772;9.162;2024-01-11T12:18:24;14.90;33.50
48212;DHT22;34000;48.772;9.162;2024-01-11T12:20:51;14.80;33.70
48212;DHT22;34000;48.772;9.162;2024-01-11T12:23:18;14.70;34.40
48212;DHT22;34000;48.772;9.162;2024-01-11T12:25:44;14.60;33.70
48212;DHT22;34000;48.772;9.162;2024-01-11T12:28:10;14.50;33.60
48212;DHT22;34000;48.772;9.162;2024-01-11T12:30:36;14.30;33.60
48212;DHT22;34000;48.772;9.162;2024-01-11T12:33:02;14.20;33.80
48212;DHT22;34000;48.772;9.162;2024-01-11T12:35:28;14.10;33.90
48212;DHT22;34000;48.772;9.162;2024-01-11T12:37:54;14.10;33.90
48212;DHT22;34000;48.772;9.162;2024-01-11T12:40:20;14.00;33.70
48212;DHT22;34000;48.772;9.162;2024-01-11T12:42:46;13.90;33.80
48212;DHT22;34000;48.772;9.162;2024-01-11T12:45:15;13.70;33.90
48212;DHT22;34000;48.772;9.162;2024-01-11T12:47:40;13.70;33.90
48212;DHT22;34000;48.772;9.162;2024-01-11T12:50:06;13.60;33.90
48212;DHT22;34000;48.772;9.162;2024-01-11T12:52:33;13.50;33.90
48212;DHT22;34000;48.772;9.162;2024-01-11T12:54:58;13.50;34.00
48212;DHT22;34000;48.772;9.162;2024-01-11T12:57:25;13.40;34.10
48212;DHT22;34000;48.772;9.162;2024-01-11T12:59:52;13.30;34.10
48212;DHT22;34000;48.772;9.162;2024-01-11T13:02:18;13.30;34.20
48212;DHT22;34000;48.772;9.162;2024-01-11T13:04:43;13.30;34.20
48212;DHT22;34000;48.772;9.162;2024-01-11T13:07:12;13.20;34.10
48212;DHT22;34000;48.772;9.162;2024-01-11T13:09:38;13.20;34.10
48212;DHT22;34000;48.772;9.162;2024-01-11T13:12:04;13.20;34.10
48212;DHT22;34000;48.772;9.162;2024-01-11T13:14:30;13.20;34.00
48212;DHT22;34000;48.772;9.162;2024-01-11T13:16:56;13.20;34.50
48212;DHT22;34000;48.772;9.162;2024-01-11T13:19:23;13.10;33.90
48212;DHT22;34000;48.772;9.162;2024-01-11T13:21:48;13.00;33.80
48212;DHT22;34000;48.772;9.162;2024-01-11T13:24:14;12.90;33.80
48212;DHT22;34000;48.772;9.162;2024-01-11T13:26:40;12.80;33.90
48212;DHT22;34000;48.772;9.162;2024-01-11T13:29:06;12.80;34.00
48212;DHT22;34000;48.772;9.162;2024-01-11T13:31:32;12.80;34.00
48212;DHT22;34000;48.772;9.162;2024-01-11T13:33:58;12.70;34.00
48212;DHT22;34000;48.772;9.162;2024-01-11T13:36:24;12.60;33.90
48212;DHT22;34000;48.772;9.162;2024-01-11T13:38:50;12.50;33.90
48212;DHT22;34000;48.772;9.162;2024-01-11T13:41:16;12.50;33.90
48212;DHT22;34000;48.772;9.162;2024-01-11T13:43:43;12.50;33.80
48212;DHT22;34000;48.772;9.162;2024-01-11T13:46:09;12.40;33.80
48212;DHT22;34000;48.772;9.162;2024-01-11T13:48:34;12.40;33.80
48212;DHT22;34000;48.772;9.162;2024-01-11T13:51:01;12.30;33.80
48212;DHT22;34000;48.772;9.162;2024-01-11T13:53:29;12.20;33.80
48212;DHT22;34000;48.772;9.162;2024-01-11T13:55:54;12.10;33.80
48212;DHT22;34000;48.772;9.162;2024-01-11T13:58:21;12.00;33.80
48212;DHT22;34000;48.772;9.162;2024-01-11T14:00:46;12.00;33.70
48212;DHT22;34000;48.772;9.162;2024-01-11T14:03:12;11.90;33.60
48212;DHT22;34000;48.772;9.162;2024-01-11T14:05:38;11.90;33.60
48212;DHT22;34000;48.772;9.162;2024-01-11T14:08:04;11.80;33.50
48212;DHT22;34000;48.772;9.162;2024-01-11T14:10:33;11.70;33.60
48212;DHT22;34000;48.772;9.162;2024-01-11T14:13:00;11.60;33.50
48212;DHT22;34000;48.772;9.162;2024-01-11T14:15:27;11.40;33.50
48212;DHT22;34000;48.772;9.162;2024-01-11T14:17:52;11.40;33.60
48212;DHT22;34000;48.772;9.162;2024-01-11T14:20:18;11.20;33.70
48212;DHT22;34000;48.772;9.162;2024-01-11T14:22:45;11.10;33.80
48212;DHT22;34000;48.772;9.162;2024-01-11T14:25:21;10.90;33.80
48212;DHT22;34000;48.772;9.162;2024-01-11T14:27:50;10.80;33.90
48212;DHT22;34000;48.772;9.162;2024-01-11T14:30:15;10.70;34.00
48212;DHT22;34000;48.772;9.162;2024-01-11T14:32:41;10.60;34.10
48212;DHT22;34000;48.772;9.162;2024-01-11T14:35:08;10.50;34.20
48212;DHT22;34000;48.772;9.162;2024-01-11T14:37:35;10.40;34.20
48212;DHT22;34000;48.772;9.162;2024-01-11T14:40:02;10.40;34.40
48212;DHT22;34000;48.772;9.162;2024-01-11T14:42:28;10.30;34.40
